createdAt,value
2018-03-06T00:01:56.760Z,-1.10
2018-03-06T00:04:24.260Z,-1.10
2018-03-06T00:06:52.526Z,-1.10
2018-03-06T00:09:20.825Z,-1.10
2018-03-06T00:11:48.324Z,-1.10
2018-03-06T00:14:15.830Z,-1.00
2018-03-06T00:16:43.340Z,-1.00
2018-03-06T00:19:10.851Z,-1.00
2018-03-06T00:21:38.336Z,-1.00
2018-03-06T00:24:05.837Z,-1.00
2018-03-06T00:26:33.339Z,-1.00
2018-03-06T00:29:00.863Z,-0.90
2018-03-06T00:31:29.141Z,-1.00
2018-03-06T00:33:57.425Z,-1.00
2018-03-06T00:36:25.705Z,-1.00
2018-03-06T00:38:53.989Z,-1.00
2018-03-06T00:41:21.490Z,-1.00
2018-03-06T00:43:49.013Z,-0.90
2018-03-06T00:46:16.520Z,-0.90
2018-03-06T00:48:44.037Z,-0.90
2018-03-06T00:51:11.540Z,-0.90
2018-03-06T00:53:39.044Z,-0.90
2018-03-06T00:56:06.568Z,-0.90
2018-03-06T00:58:34.070Z,-0.90
2018-03-06T01:01:02.524Z,-0.90
2018-03-06T01:03:30.808Z,-1.00
2018-03-06T01:05:59.116Z,-0.90
2018-03-06T01:08:26.660Z,-0.90
2018-03-06T01:10:54.937Z,-0.80
2018-03-06T01:13:23.199Z,-0.80
2018-03-06T01:15:50.701Z,-0.80
2018-03-06T01:18:18.201Z,-0.80
2018-03-06T01:20:46.488Z,-0.90
2018-03-06T01:23:14.005Z,-0.90
2018-03-06T01:25:41.526Z,-0.90
2018-03-06T01:28:09.048Z,-0.90
2018-03-06T01:30:37.329Z,-0.90
2018-03-06T01:33:05.608Z,-0.90
2018-03-06T01:35:33.893Z,-0.90
2018-03-06T01:38:01.405Z,-0.90
2018-03-06T01:40:28.917Z,-0.90
2018-03-06T01:42:56.425Z,-0.90
2018-03-06T01:45:23.944Z,-0.90
2018-03-06T01:47:51.466Z,-0.80
2018-03-06T01:50:19.745Z,-0.90
2018-03-06T01:52:48.023Z,-0.90
2018-03-06T01:55:16.308Z,-0.90
2018-03-06T01:57:43.816Z,-0.90
2018-03-06T02:00:11.311Z,-0.90
2018-03-06T02:02:39.598Z,-1.00
2018-03-06T02:05:07.097Z,-1.00
2018-03-06T02:07:34.581Z,-1.00
2018-03-06T02:10:02.100Z,-1.10
2018-03-06T02:12:29.613Z,-1.00
2018-03-06T02:14:57.892Z,-1.10
2018-03-06T02:17:26.148Z,-1.10
2018-03-06T02:19:53.673Z,-1.10
2018-03-06T02:22:21.176Z,-1.10
2018-03-06T02:24:49.455Z,-1.10
2018-03-06T02:27:17.738Z,-1.10
2018-03-06T02:29:46.019Z,-1.10
2018-03-06T02:32:14.403Z,-1.10
2018-03-06T02:34:41.964Z,-1.10
2018-03-06T02:37:10.233Z,-1.20
2018-03-06T02:39:37.751Z,-1.20
2018-03-06T02:42:05.255Z,-1.20
2018-03-06T02:44:32.758Z,-1.30
2018-03-06T02:47:00.273Z,-1.30
2018-03-06T02:49:28.580Z,-1.30
2018-03-06T02:51:56.132Z,-1.30
2018-03-06T02:54:23.639Z,-1.30
2018-03-06T02:56:51.144Z,-1.30
2018-03-06T02:59:19.403Z,-1.30
2018-03-06T03:01:47.714Z,-1.30
2018-03-06T03:04:15.969Z,-1.30
2018-03-06T03:06:44.250Z,-1.30
2018-03-06T03:09:11.769Z,-1.30
2018-03-06T03:11:39.279Z,-1.40
2018-03-06T03:14:06.797Z,-1.30
2018-03-06T03:16:34.343Z,-1.40
2018-03-06T03:19:01.846Z,-1.40
2018-03-06T03:21:29.358Z,-1.40
2018-03-06T03:23:56.866Z,-1.30
2018-03-06T03:26:24.385Z,-1.30
2018-03-06T03:28:51.890Z,-1.30
2018-03-06T03:31:19.435Z,-1.30
2018-03-06T03:33:46.924Z,-1.30
2018-03-06T03:36:14.435Z,-1.30
2018-03-06T03:38:42.718Z,-1.30
2018-03-06T03:41:10.989Z,-1.40
2018-03-06T03:43:39.260Z,-1.40
2018-03-06T03:46:07.529Z,-1.40
2018-03-06T03:48:35.051Z,-1.40
2018-03-06T03:51:03.327Z,-1.40
2018-03-06T03:53:30.850Z,-1.40
2018-03-06T03:55:58.360Z,-1.40
2018-03-06T03:58:25.873Z,-1.40
2018-03-06T04:00:53.368Z,-1.40
2018-03-06T04:03:20.881Z,-1.40
2018-03-06T04:05:48.418Z,-1.40
2018-03-06T04:08:16.808Z,-1.40
2018-03-06T04:10:45.066Z,-1.40
2018-03-06T04:13:12.563Z,-1.40
2018-03-06T04:15:40.048Z,-1.40
2018-03-06T04:18:07.540Z,-1.40
2018-03-06T04:20:35.049Z,-1.50
2018-03-06T04:23:02.568Z,-1.50
2018-03-06T04:25:30.872Z,-1.50
2018-03-06T04:27:58.376Z,-1.50
2018-03-06T04:30:25.885Z,-1.60
2018-03-06T04:32:53.402Z,-1.60
2018-03-06T04:35:20.900Z,-1.60
2018-03-06T04:37:48.416Z,-1.60
2018-03-06T04:40:15.932Z,-1.60
2018-03-06T04:42:43.452Z,-1.50
2018-03-06T04:45:11.725Z,-1.50
2018-03-06T04:47:40.048Z,-1.50
2018-03-06T04:50:07.556Z,-1.50
2018-03-06T04:52:35.813Z,-1.50
2018-03-06T04:55:03.435Z,-1.50
2018-03-06T04:57:30.936Z,-1.50
2018-03-06T04:59:58.440Z,-1.50
2018-03-06T05:02:25.969Z,-1.50
2018-03-06T05:04:54.281Z,-1.50
2018-03-06T05:07:21.783Z,-1.50
2018-03-06T05:09:49.304Z,-1.50
2018-03-06T05:12:16.822Z,-1.50
2018-03-06T05:14:45.097Z,-1.50
2018-03-06T05:17:13.382Z,-1.40
2018-03-06T05:19:41.662Z,-1.40
2018-03-06T05:22:09.205Z,-1.50
2018-03-06T05:24:36.722Z,-1.40
2018-03-06T05:27:04.244Z,-1.40
2018-03-06T05:29:31.744Z,-1.50
2018-03-06T05:31:59.229Z,-1.50
2018-03-06T05:34:26.755Z,-1.50
2018-03-06T05:36:54.260Z,-1.50
2018-03-06T05:39:22.532Z,-1.50
2018-03-06T05:41:50.796Z,-1.50
2018-03-06T05:44:18.326Z,-1.50
2018-03-06T05:46:45.833Z,-1.40
2018-03-06T05:49:13.348Z,-1.50
2018-03-06T05:51:40.850Z,-1.50
2018-03-06T05:54:08.362Z,-1.50
2018-03-06T05:56:35.883Z,-1.50
2018-03-06T05:59:03.386Z,-1.50
2018-03-06T06:01:30.875Z,-1.50
2018-03-06T06:03:58.363Z,-1.40
2018-03-06T06:06:26.636Z,-1.40
2018-03-06T06:08:54.913Z,-1.50
2018-03-06T06:11:23.200Z,-1.40
2018-03-06T06:13:51.494Z,-1.30
2018-03-06T06:16:19.002Z,-1.40
2018-03-06T06:18:46.494Z,-1.30
2018-03-06T06:21:14.020Z,-1.30
2018-03-06T06:23:42.304Z,-1.30
2018-03-06T06:26:09.813Z,-1.30
2018-03-06T06:28:37.312Z,-1.30
2018-03-06T06:31:04.804Z,-1.30
2018-03-06T06:33:33.050Z,-1.30
2018-03-06T06:36:00.578Z,-1.30
2018-03-06T06:38:28.069Z,-1.30
2018-03-06T06:40:55.591Z,-1.30
2018-03-06T06:43:23.084Z,-1.20
2018-03-06T06:45:50.568Z,-1.30
2018-03-06T06:48:18.845Z,-1.30
2018-03-06T06:50:47.132Z,-1.20
2018-03-06T06:53:14.642Z,-1.20
2018-03-06T06:55:42.128Z,-1.20
2018-03-06T06:58:09.609Z,-1.10
2018-03-06T07:00:38.848Z,-1.20
2018-03-06T07:03:06.366Z,-1.10
2018-03-06T07:05:33.872Z,-1.20
2018-03-06T07:08:01.390Z,-1.10
2018-03-06T07:10:28.939Z,-1.10
2018-03-06T07:12:56.423Z,-1.10
2018-03-06T07:15:24.715Z,-1.00
2018-03-06T07:17:52.232Z,-1.00
2018-03-06T07:20:19.717Z,-1.00
2018-03-06T07:22:47.998Z,-0.90
2018-03-06T07:25:16.256Z,-0.90
2018-03-06T07:27:43.767Z,-0.90
2018-03-06T07:30:11.255Z,-0.80
2018-03-06T07:32:38.757Z,-0.80
2018-03-06T07:35:06.234Z,-0.80
2018-03-06T07:37:33.724Z,-0.70
2018-03-06T07:40:01.212Z,-0.70
2018-03-06T07:42:28.702Z,-0.70
2018-03-06T07:44:56.192Z,-0.60
2018-03-06T07:47:23.693Z,-0.60
2018-03-06T07:49:51.940Z,-0.50
2018-03-06T07:52:19.429Z,-0.50
2018-03-06T07:54:47.689Z,-0.40
2018-03-06T07:57:15.223Z,-0.40
2018-03-06T07:59:42.708Z,-0.40
2018-03-06T08:02:11.032Z,-0.20
2018-03-06T08:04:38.550Z,-0.20
2018-03-06T08:07:06.803Z,-0.10
2018-03-06T08:09:34.355Z,-0.10
2018-03-06T08:12:01.903Z,-0.10
2018-03-06T08:14:29.475Z,-0.10
2018-03-06T08:16:56.992Z,-0.20
2018-03-06T08:19:24.493Z,-0.10
2018-03-06T08:21:52.020Z,0.00
2018-03-06T08:24:20.428Z,0.10
2018-03-06T08:26:47.912Z,0.20
2018-03-06T08:29:15.444Z,0.40
2018-03-06T08:31:42.917Z,0.50
2018-03-06T08:34:10.419Z,0.50
2018-03-06T08:36:37.933Z,0.50
2018-03-06T08:39:05.432Z,0.70
2018-03-06T08:41:32.974Z,0.70
2018-03-06T08:44:00.470Z,0.70
2018-03-06T08:46:28.025Z,0.80
2018-03-06T08:48:55.552Z,0.80
2018-03-06T08:51:23.793Z,0.80
2018-03-06T08:53:51.289Z,0.80
2018-03-06T08:56:19.580Z,0.90
2018-03-06T08:58:47.063Z,0.90
2018-03-06T09:01:14.569Z,1.00
2018-03-06T09:03:42.848Z,1.20
2018-03-06T09:06:10.332Z,1.20
2018-03-06T09:08:37.821Z,1.20
2018-03-06T09:11:06.080Z,1.40
2018-03-06T09:13:33.596Z,1.40
2018-03-06T09:16:01.858Z,1.40
2018-03-06T09:18:29.361Z,1.40
2018-03-06T09:20:56.881Z,1.40
2018-03-06T09:23:24.379Z,1.40
2018-03-06T09:25:51.865Z,1.30
2018-03-06T09:28:20.222Z,1.30
2018-03-06T09:30:47.716Z,1.30
2018-03-06T09:33:15.220Z,1.30
2018-03-06T09:35:42.716Z,1.40
2018-03-06T09:38:10.200Z,1.30
2018-03-06T09:40:37.706Z,1.30
2018-03-06T09:43:05.313Z,1.30
2018-03-06T09:45:32.792Z,1.30
2018-03-06T09:48:01.058Z,1.10
2018-03-06T09:50:29.328Z,1.10
2018-03-06T09:52:56.838Z,1.10
2018-03-06T09:55:24.330Z,1.20
2018-03-06T09:57:51.832Z,1.10
2018-03-06T10:00:19.312Z,1.10
2018-03-06T10:02:46.783Z,1.10
2018-03-06T10:05:14.264Z,1.10
2018-03-06T10:07:41.800Z,1.20
2018-03-06T10:10:09.279Z,1.20
2018-03-06T10:12:36.748Z,1.20
2018-03-06T10:15:05.008Z,1.30
2018-03-06T10:17:32.480Z,1.30
2018-03-06T10:20:00.780Z,1.70
2018-03-06T10:22:28.369Z,1.70
2018-03-06T10:24:55.869Z,1.80
2018-03-06T10:27:23.349Z,1.80
2018-03-06T10:29:51.596Z,1.90
2018-03-06T10:32:19.126Z,1.90
2018-03-06T10:34:46.768Z,1.90
2018-03-06T10:37:14.235Z,2.00
2018-03-06T10:39:41.755Z,1.90
2018-03-06T10:42:10.018Z,1.90
2018-03-06T10:44:38.282Z,1.90
2018-03-06T10:47:05.816Z,1.90
2018-03-06T10:49:34.013Z,1.80
2018-03-06T10:52:01.510Z,1.80
2018-03-06T10:54:29.006Z,1.80
2018-03-06T10:56:56.568Z,1.80
2018-03-06T10:59:24.104Z,1.90
2018-03-06T11:02:02.278Z,2.10
2018-03-06T11:04:30.536Z,2.30
2018-03-06T11:06:58.022Z,2.30
2018-03-06T11:09:25.494Z,2.40
2018-03-06T11:11:53.084Z,2.40
2018-03-06T11:14:21.402Z,2.40
2018-03-06T11:16:48.836Z,2.50
2018-03-06T11:19:16.305Z,2.50
2018-03-06T11:21:43.986Z,2.50
2018-03-06T11:24:11.478Z,2.60
2018-03-06T11:26:38.961Z,2.50
2018-03-06T11:29:06.446Z,2.50
2018-03-06T11:31:34.040Z,2.50
2018-03-06T11:34:02.724Z,2.30
2018-03-06T11:36:30.205Z,2.30
2018-03-06T11:38:57.672Z,2.40
2018-03-06T11:41:25.955Z,2.50
2018-03-06T11:43:53.444Z,2.50
2018-03-06T11:46:21.699Z,2.70
2018-03-06T11:48:49.164Z,2.60
2018-03-06T11:51:16.658Z,2.70
2018-03-06T11:53:44.212Z,2.70
2018-03-06T11:56:11.726Z,2.80
2018-03-06T11:58:40.240Z,2.80
2018-03-06T12:01:08.777Z,2.70
2018-03-06T12:03:37.016Z,2.60
2018-03-06T12:06:04.496Z,2.50
2018-03-06T12:08:32.046Z,2.50
2018-03-06T12:10:59.673Z,2.50
2018-03-06T12:13:27.954Z,2.20
2018-03-06T12:15:55.460Z,2.20
2018-03-06T12:18:22.934Z,2.10
2018-03-06T12:20:50.433Z,2.00
2018-03-06T12:23:17.909Z,2.00
2018-03-06T12:25:45.400Z,2.00
2018-03-06T12:28:12.875Z,2.00
2018-03-06T12:30:41.416Z,2.00
2018-03-06T12:33:08.980Z,2.00
2018-03-06T12:35:36.502Z,2.00
2018-03-06T12:38:04.006Z,1.90
2018-03-06T12:40:31.503Z,2.00
2018-03-06T12:42:59.748Z,2.00
2018-03-06T12:45:27.224Z,2.00
2018-03-06T12:47:54.702Z,2.00
2018-03-06T12:50:22.969Z,2.00
2018-03-06T12:52:51.225Z,2.00
2018-03-06T12:55:18.706Z,2.00
2018-03-06T12:57:46.943Z,2.00
2018-03-06T13:00:14.424Z,2.00
2018-03-06T13:02:41.916Z,2.10
2018-03-06T13:05:09.479Z,2.00
2018-03-06T13:07:37.172Z,2.10
2018-03-06T13:10:04.710Z,1.90
2018-03-06T13:12:32.316Z,2.00
2018-03-06T13:14:59.749Z,2.00
2018-03-06T13:17:27.228Z,2.00
2018-03-06T13:19:54.734Z,2.00
2018-03-06T13:22:22.241Z,1.90
2018-03-06T13:24:51.233Z,1.80
2018-03-06T13:27:21.371Z,1.80
2018-03-06T13:29:48.890Z,1.80
2018-03-06T13:32:16.360Z,1.70
2018-03-06T13:34:43.840Z,1.70
2018-03-06T13:37:11.324Z,1.70
2018-03-06T13:39:39.580Z,1.60
2018-03-06T13:42:07.507Z,1.60
2018-03-06T13:44:35.017Z,1.50
2018-03-06T13:47:02.480Z,1.50
2018-03-06T13:49:30.744Z,1.50
2018-03-06T13:51:58.233Z,1.50
2018-03-06T13:54:25.718Z,1.50
2018-03-06T13:56:53.220Z,1.50
2018-03-06T13:59:20.704Z,1.50
2018-03-06T14:01:48.947Z,1.50
2018-03-06T14:04:16.437Z,1.50
2018-03-06T14:06:43.909Z,1.50
2018-03-06T14:09:11.395Z,1.50
2018-03-06T14:11:38.863Z,1.40
2018-03-06T14:14:07.131Z,1.40
2018-03-06T14:16:34.613Z,1.40
2018-03-06T14:19:02.096Z,1.40
2018-03-06T14:21:30.336Z,1.50
2018-03-06T14:23:57.824Z,1.50
2018-03-06T14:26:26.058Z,1.50
2018-03-06T14:28:53.537Z,1.40
2018-03-06T14:31:21.011Z,1.50
2018-03-06T14:33:49.269Z,1.40
2018-03-06T14:36:16.754Z,1.40
2018-03-06T14:38:44.237Z,1.50
2018-03-06T14:41:11.702Z,1.50
2018-03-06T14:43:39.197Z,1.50
2018-03-06T14:46:06.672Z,1.50
2018-03-06T14:48:34.901Z,1.40
2018-03-06T14:51:02.408Z,1.40
2018-03-06T14:53:29.886Z,1.40
2018-03-06T14:55:57.368Z,1.40
2018-03-06T14:58:24.845Z,1.50
2018-03-06T15:00:52.321Z,1.50
2018-03-06T15:03:20.912Z,1.50
2018-03-06T15:05:49.171Z,1.50
2018-03-06T15:08:16.728Z,1.50
2018-03-06T15:10:44.204Z,1.50
2018-03-06T15:13:12.919Z,1.50
2018-03-06T15:15:40.434Z,1.50
2018-03-06T15:18:07.917Z,1.50
2018-03-06T15:20:36.163Z,1.20
2018-03-06T15:23:03.662Z,1.20
2018-03-06T15:25:31.136Z,1.20
2018-03-06T15:27:58.596Z,1.20
2018-03-06T15:30:26.076Z,1.20
2018-03-06T15:32:53.728Z,1.30
2018-03-06T15:35:24.758Z,1.30
2018-03-06T15:37:52.480Z,1.30
2018-03-06T15:40:20.766Z,1.30
2018-03-06T15:42:49.037Z,1.30
2018-03-06T15:45:16.835Z,1.30
2018-03-06T15:47:44.512Z,1.30
2018-03-06T15:50:12.919Z,1.30
2018-03-06T15:52:40.418Z,1.30
2018-03-06T15:55:07.924Z,1.30
2018-03-06T15:57:35.440Z,1.30
2018-03-06T16:00:02.962Z,1.20
2018-03-06T16:02:30.462Z,1.20
2018-03-06T16:04:57.970Z,1.20
2018-03-06T16:07:26.452Z,1.10
2018-03-06T16:09:53.962Z,0.90
2018-03-06T16:12:21.481Z,0.90
2018-03-06T16:14:48.977Z,0.90
2018-03-06T16:17:16.489Z,0.90
2018-03-06T16:19:43.994Z,0.90
2018-03-06T16:22:11.501Z,0.90
2018-03-06T16:24:39.002Z,0.80
2018-03-06T16:27:06.510Z,0.80
2018-03-06T16:29:34.015Z,0.80
2018-03-06T16:32:01.529Z,0.80
2018-03-06T16:34:29.042Z,0.80
2018-03-06T16:36:56.556Z,0.70
2018-03-06T16:39:24.066Z,0.70
2018-03-06T16:41:51.589Z,0.70
2018-03-06T16:44:19.866Z,0.60
2018-03-06T16:46:48.142Z,0.60
2018-03-06T16:49:16.865Z,0.50
2018-03-06T16:51:44.745Z,0.50
2018-03-06T16:54:12.245Z,0.50
2018-03-06T16:56:40.521Z,0.50
2018-03-06T16:59:08.790Z,0.50
2018-03-06T17:01:37.074Z,0.40
2018-03-06T17:04:05.347Z,0.40
2018-03-06T17:06:33.625Z,0.40
2018-03-06T17:09:01.889Z,0.50
2018-03-06T17:11:29.426Z,0.40
2018-03-06T17:13:56.925Z,0.50
2018-03-06T17:16:25.194Z,0.40
2018-03-06T17:18:53.469Z,0.50
2018-03-06T17:21:21.758Z,0.40
2018-03-06T17:23:49.315Z,0.40
2018-03-06T17:26:16.847Z,0.40
2018-03-06T17:28:44.358Z,0.40
2018-03-06T17:31:11.862Z,0.40
2018-03-06T17:33:39.389Z,0.40
2018-03-06T17:36:06.894Z,0.40
2018-03-06T17:38:35.166Z,0.40
2018-03-06T17:41:03.430Z,0.40
2018-03-06T17:43:30.976Z,0.40
2018-03-06T17:45:58.485Z,0.40
2018-03-06T17:48:25.997Z,0.40
2018-03-06T17:50:53.501Z,0.30
2018-03-06T17:53:21.011Z,0.30
2018-03-06T17:55:48.538Z,0.30
2018-03-06T17:58:16.050Z,0.40
2018-03-06T18:00:44.359Z,0.30
2018-03-06T18:03:11.917Z,0.30
2018-03-06T18:05:39.426Z,0.30
2018-03-06T18:08:06.946Z,0.30
2018-03-06T18:10:34.450Z,0.30
2018-03-06T18:13:01.962Z,0.30
2018-03-06T18:15:30.248Z,0.30
2018-03-06T18:17:57.758Z,0.20
2018-03-06T18:20:26.021Z,0.20
2018-03-06T18:22:54.302Z,0.20
2018-03-06T18:25:22.577Z,0.30
2018-03-06T18:27:50.847Z,0.30
2018-03-06T18:30:19.134Z,0.30
2018-03-06T18:32:47.406Z,0.30
2018-03-06T18:35:15.681Z,0.30
2018-03-06T18:37:43.953Z,0.30
2018-03-06T18:40:12.239Z,0.30
2018-03-06T18:42:40.505Z,0.20
2018-03-06T18:45:08.781Z,0.20
2018-03-06T18:47:37.058Z,0.20
2018-03-06T18:50:05.344Z,0.20
2018-03-06T18:52:33.613Z,0.30
2018-03-06T18:55:01.890Z,0.20
2018-03-06T18:57:30.153Z,0.20
2018-03-06T19:03:23.069Z,0.20
2018-03-06T19:05:57.060Z,0.10
2018-03-06T19:08:24.570Z,0.10
2018-03-06T19:10:52.099Z,0.10
2018-03-06T19:13:19.597Z,0.10
2018-03-06T19:15:47.114Z,0.10
2018-03-06T19:18:14.621Z,0.10
2018-03-06T19:20:42.183Z,0.10
2018-03-06T19:23:09.683Z,0.10
2018-03-06T19:25:37.182Z,0.10
2018-03-06T19:28:04.697Z,0.10
2018-03-06T19:30:32.210Z,0.10
2018-03-06T19:32:59.720Z,0.10
2018-03-06T19:35:27.198Z,0.10
2018-03-06T19:37:54.683Z,0.10
2018-03-06T19:40:22.153Z,0.20
2018-03-06T19:42:50.413Z,0.20
2018-03-06T19:45:17.884Z,0.10
2018-03-06T19:47:46.134Z,0.10
2018-03-06T19:50:13.621Z,0.20
2018-03-06T19:52:41.873Z,0.10
2018-03-06T19:55:09.345Z,0.10
2018-03-06T19:57:37.593Z,0.10
2018-03-06T20:00:05.837Z,0.10
2018-03-06T20:02:33.318Z,0.10
2018-03-06T20:05:00.800Z,0.10
2018-03-06T20:07:28.753Z,0.10
2018-03-06T20:09:56.861Z,0.10
2018-03-06T20:12:25.109Z,0.10
2018-03-06T20:14:58.154Z,0.10
2018-03-06T20:17:25.650Z,0.10
2018-03-06T20:19:53.194Z,0.10
2018-03-06T20:22:20.665Z,0.10
2018-03-06T20:24:53.812Z,0.10
2018-03-06T20:27:21.285Z,0.10
2018-03-06T20:29:49.054Z,0.10
2018-03-06T20:32:22.141Z,0.10
2018-03-06T20:34:49.674Z,0.10
2018-03-06T20:37:17.196Z,0.10
2018-03-06T20:39:50.392Z,0.10
2018-03-06T20:42:18.723Z,0.10
2018-03-06T20:44:46.233Z,0.10
2018-03-06T20:47:20.128Z,0.10
2018-03-06T20:49:47.659Z,0.10
2018-03-06T20:52:15.164Z,0.10
2018-03-06T20:54:48.474Z,0.10
2018-03-06T20:57:15.956Z,0.00
2018-03-06T20:59:44.205Z,0.10
2018-03-06T21:02:11.764Z,0.10
2018-03-06T21:04:39.300Z,0.10
2018-03-06T21:07:07.675Z,0.20
2018-03-06T21:09:36.038Z,0.20
2018-03-06T21:12:03.555Z,0.10
2018-03-06T21:14:31.066Z,0.20
2018-03-06T21:16:58.597Z,0.20
2018-03-06T21:19:26.176Z,0.20
2018-03-06T21:21:53.620Z,0.20
2018-03-06T21:24:21.089Z,0.20
2018-03-06T21:26:48.640Z,0.30
2018-03-06T21:29:16.187Z,0.30
2018-03-06T21:31:43.689Z,0.20
2018-03-06T21:34:11.202Z,0.20
2018-03-06T21:36:38.692Z,0.20
2018-03-06T21:39:06.164Z,0.20
2018-03-06T21:41:34.426Z,0.20
2018-03-06T21:44:01.916Z,0.20
2018-03-06T21:46:29.453Z,0.20
2018-03-06T21:48:56.931Z,0.20
2018-03-06T21:51:24.413Z,0.20
2018-03-06T21:53:52.656Z,0.30
2018-03-06T21:56:20.147Z,0.20
2018-03-06T21:58:48.389Z,0.30
2018-03-06T22:01:17.387Z,0.30
2018-03-06T22:03:45.653Z,0.30
2018-03-06T22:06:13.476Z,0.30
2018-03-06T22:08:40.952Z,0.30
2018-03-06T22:11:08.454Z,0.30
2018-03-06T22:13:36.280Z,0.20
2018-03-06T22:16:03.753Z,0.20
2018-03-06T22:18:31.329Z,0.20
2018-03-06T22:20:58.805Z,0.20
2018-03-06T22:23:27.056Z,0.20
2018-03-06T22:25:54.535Z,0.10
2018-03-06T22:28:22.794Z,0.30
2018-03-06T22:30:51.045Z,0.30
2018-03-06T22:33:18.533Z,0.30
2018-03-06T22:35:46.809Z,0.30
2018-03-06T22:38:15.057Z,0.30
2018-03-06T22:40:42.531Z,0.20
2018-03-06T22:43:10.409Z,0.30
2018-03-06T22:45:38.664Z,0.30
2018-03-06T22:48:06.169Z,0.30
2018-03-06T22:50:33.640Z,0.20
2018-03-06T22:53:01.124Z,0.20
2018-03-06T22:55:28.609Z,0.30
2018-03-06T22:57:56.869Z,0.30
2018-03-06T23:00:24.346Z,0.30
2018-03-06T23:02:52.588Z,0.30
2018-03-06T23:05:20.061Z,0.30
2018-03-06T23:07:47.545Z,0.30
2018-03-06T23:10:15.809Z,0.30
2018-03-06T23:12:43.284Z,0.30
2018-03-06T23:15:11.521Z,0.30
2018-03-06T23:17:39.004Z,0.30
2018-03-06T23:20:06.480Z,0.30
2018-03-06T23:22:33.978Z,0.40
2018-03-06T23:25:01.453Z,0.30
2018-03-06T23:27:28.949Z,0.40
2018-03-06T23:29:57.201Z,0.30
2018-03-06T23:32:24.665Z,0.30
2018-03-06T23:34:52.917Z,0.40
2018-03-06T23:37:20.404Z,0.40
2018-03-06T23:39:48.689Z,0.40
2018-03-06T23:42:16.176Z,0.40
2018-03-06T23:44:43.665Z,0.40
2018-03-06T23:47:11.140Z,0.40
2018-03-06T23:49:38.616Z,0.40
2018-03-06T23:52:06.847Z,0.40
2018-03-06T23:54:34.336Z,0.40
2018-03-06T23:57:02.585Z,0.50
2018-03-06T23:59:30.078Z,0.40
